Time;durP1;ratioP1;P1;durP2;ratioP2;P2;SDS_P1;SDS_P2;PMS_P1;PMS_P2;Temp;Humidity;BMP_temperature;BMP_pressure;BME280_temperature;BME280_humidity;BME280_pressure;Samples;Min_cycle;Max_cycle;Signal;HPM_P1;HPM_P2
2021/10/31 00:02:08;;;;;;;10.90;6.60;;;14.10;95.10;;;;;;5010645;28;20022;-74
2021/10/31 00:04:34;;;;;;;12.57;6.72;;;14.10;95.10;;;;;;4968638;28;1197392;-74
2021/10/31 00:07:00;;;;;;;12.15;6.57;;;14.20;94.90;;;;;;5011680;28;20443;-73
2021/10/31 00:09:25;;;;;;;10.90;6.28;;;14.20;95.00;;;;;;5011074;28;20037;-74
2021/10/31 00:11:51;;;;;;;10.73;6.40;;;14.20;94.80;;;;;;5011505;28;20030;-73
2021/10/31 00:14:17;;;;;;;9.82;6.32;;;14.30;95.00;;;;;;5011303;28;20038;-74
2021/10/31 00:16:42;;;;;;;14.73;7.47;;;14.20;95.00;;;;;;5011406;28;20113;-73
2021/10/31 00:19:08;;;;;;;13.88;7.25;;;14.30;95.00;;;;;;5011674;28;20052;-74
2021/10/31 00:21:33;;;;;;;13.13;6.30;;;14.20;95.00;;;;;;5011442;28;20033;-72
2021/10/31 00:23:59;;;;;;;13.25;6.55;;;14.20;95.10;;;;;;5011107;28;20375;-73
2021/10/31 00:26:25;;;;;;;11.50;6.85;;;14.20;95.10;;;;;;5011124;28;20370;-73
2021/10/31 00:28:50;;;;;;;14.18;6.88;;;14.20;95.10;;;;;;5010923;28;20042;-73
2021/10/31 00:31:16;;;;;;;12.25;6.70;;;14.20;95.10;;;;;;5011659;28;20105;-72
2021/10/31 00:33:42;;;;;;;10.77;6.90;;;14.20;95.10;;;;;;5010509;28;20643;-72
2021/10/31 00:36:07;;;;;;;12.18;7.18;;;14.10;95.20;;;;;;5010980;28;20030;-72
2021/10/31 00:38:33;;;;;;;11.95;7.35;;;14.20;95.20;;;;;;5010710;28;20046;-73
2021/10/31 00:40:59;;;;;;;12.30;7.18;;;14.20;95.20;;;;;;5010992;28;20502;-72
2021/10/31 00:43:24;;;;;;;12.18;7.30;;;14.20;95.30;;;;;;5011106;28;20030;-72
2021/10/31 00:45:50;;;;;;;11.77;6.53;;;14.20;95.20;;;;;;5010596;28;20401;-73
2021/10/31 00:48:16;;;;;;;14.02;7.57;;;14.20;95.20;;;;;;5010900;28;20045;-73
2021/10/31 00:50:42;;;;;;;13.98;6.47;;;14.20;95.30;;;;;;5010858;28;20045;-73
2021/10/31 00:53:09;;;;;;;12.43;7.75;;;14.20;95.30;;;;;;5010906;28;20192;-74
2021/10/31 00:55:35;;;;;;;10.57;6.80;;;14.20;95.30;;;;;;5009587;28;20581;-73
2021/10/31 00:58:01;;;;;;;12.63;7.43;;;14.20;95.30;;;;;;5011480;28;20062;-73
2021/10/31 01:00:27;;;;;;;10.52;6.32;;;14.20;95.40;;;;;;5009424;28;20045;-73
2021/10/31 01:02:53;;;;;;;11.65;6.70;;;14.20;95.40;;;;;;5011059;28;20188;-72
2021/10/31 01:05:24;;;;;;;12.93;6.78;;;14.20;95.40;;;;;;5006535;28;20104;-72
2021/10/31 01:08:25;;;;;;;11.73;7.40;;;14.30;95.60;;;;;;4991313;28;20464;-72
2021/10/31 01:11:29;;;;;;;14.77;6.97;;;14.20;95.40;;;;;;4994189;28;20436;-72
2021/10/31 01:14:35;;;;;;;10.77;6.65;;;14.20;95.50;;;;;;4973935;28;20038;-74
2021/10/31 01:17:18;;;;;;;11.85;6.72;;;14.30;95.50;;;;;;4995345;28;20057;-73
2021/10/31 01:20:19;;;;;;;13.18;7.22;;;14.20;95.50;;;;;;4994851;28;20041;-72
2021/10/31 01:23:01;;;;;;;10.30;7.13;;;14.30;95.50;;;;;;4994809;28;20056;-74
2021/10/31 01:25:46;;;;;;;11.45;7.25;;;14.20;95.50;;;;;;4994688;28;20521;-73
2021/10/31 01:28:28;;;;;;;14.95;8.15;;;14.20;95.50;;;;;;5010256;28;20034;-73
2021/10/31 01:31:28;;;;;;;12.32;7.63;;;14.20;95.50;;;;;;4994320;28;20030;-73
2021/10/31 01:34:03;;;;;;;13.18;8.10;;;14.20;95.50;;;;;;4972014;28;20392;-72
2021/10/31 01:36:35;;;;;;;12.93;7.60;;;14.20;95.50;;;;;;4994312;28;20050;-73
2021/10/31 01:39:15;;;;;;;12.02;7.88;;;14.20;95.60;;;;;;4994886;28;20068;-72
2021/10/31 01:42:11;;;;;;;13.32;7.55;;;14.20;95.60;;;;;;4994245;28;20029;-73
2021/10/31 01:45:04;;;;;;;15.07;8.23;;;14.30;95.60;;;;;;4988382;28;20108;-74
2021/10/31 01:47:43;;;;;;;13.77;7.93;;;14.30;95.60;;;;;;4994377;28;20050;-73
2021/10/31 01:50:14;;;;;;;13.95;7.47;;;14.30;95.50;;;;;;4994391;28;20027;-73
2021/10/31 01:53:14;;;;;;;13.70;7.65;;;14.30;95.40;;;;;;4994478;28;20603;-73
2021/10/31 01:55:52;;;;;;;12.98;7.45;;;14.30;95.60;;;;;;4993655;28;20038;-73
2021/10/31 01:58:20;;;;;;;12.98;7.28;;;14.30;95.70;;;;;;5009833;28;20033;-73
2021/10/31 02:00:49;;;;;;;13.32;8.27;;;14.20;95.70;;;;;;4994058;28;20018;-74
2021/10/31 02:03:18;;;;;;;13.93;8.30;;;14.20;95.70;;;;;;4993623;28;20030;-73
2021/10/31 02:05:44;;;;;;;16.20;8.60;;;14.20;95.70;;;;;;5007301;28;20046;-73
2021/10/31 02:08:11;;;;;;;13.30;7.78;;;14.30;95.80;;;;;;5013310;28;20040;-74
2021/10/31 02:10:39;;;;;;;12.00;7.60;;;14.30;95.70;;;;;;5012885;28;20517;-74
2021/10/31 02:13:06;;;;;;;14.25;8.13;;;14.30;95.60;;;;;;5013647;28;20072;-73
2021/10/31 02:15:33;;;;;;;12.98;7.97;;;14.30;95.70;;;;;;5012972;28;20054;-73
2021/10/31 02:18:01;;;;;;;12.68;7.90;;;14.30;95.80;;;;;;5011687;28;20053;-73
2021/10/31 02:20:26;;;;;;;13.05;8.15;;;14.30;95.80;;;;;;5012921;28;20030;-73
2021/10/31 02:22:56;;;;;;;11.38;7.63;;;14.40;95.80;;;;;;5011979;28;20038;-72
2021/10/31 02:25:24;;;;;;;13.35;8.10;;;14.30;95.70;;;;;;5013405;28;20029;-73
2021/10/31 02:27:50;;;;;;;13.83;7.90;;;14.30;95.60;;;;;;5011601;28;20757;-74
2021/10/31 02:30:16;;;;;;;12.77;8.45;;;14.30;95.70;;;;;;5012633;28;20084;-74
2021/10/31 02:32:42;;;;;;;14.48;9.15;;;14.30;95.70;;;;;;5012623;28;20034;-73
2021/10/31 02:35:11;;;;;;;16.42;8.85;;;14.30;95.80;;;;;;5014999;28;20030;-74
2021/10/31 02:37:38;;;;;;;13.68;8.77;;;14.20;95.90;;;;;;5032137;28;20331;-74
2021/10/31 02:40:06;;;;;;;11.63;7.95;;;14.30;95.80;;;;;;5031400;28;20521;-72
2021/10/31 02:42:31;;;;;;;16.05;8.68;;;14.40;95.80;;;;;;5032223;28;20124;-73
2021/10/31 02:44:57;;;;;;;17.45;8.80;;;14.30;95.80;;;;;;5030872;28;20112;-73
2021/10/31 02:47:34;;;;;;;13.50;8.77;;;14.20;96.00;;;;;;5032144;28;20025;-73
2021/10/31 02:50:00;;;;;;;13.55;8.10;;;14.30;96.10;;;;;;5031957;28;20041;-73
2021/10/31 02:52:52;;;;;;;12.60;8.23;;;14.30;96.00;;;;;;5032390;28;20034;-73
2021/10/31 02:55:40;;;;;;;14.23;8.55;;;14.30;96.00;;;;;;5047848;28;20046;-73
2021/10/31 02:58:34;;;;;;;14.30;9.23;;;14.30;95.90;;;;;;5032274;28;20702;-71
2021/10/31 03:01:03;;;;;;;14.98;8.73;;;14.30;96.10;;;;;;5032206;28;20029;-74
2021/10/31 03:03:31;;;;;;;15.63;8.23;;;14.30;96.10;;;;;;5031986;28;20033;-73
2021/10/31 03:05:58;;;;;;;13.32;8.50;;;14.30;96.10;;;;;;5030834;28;20042;-73
2021/10/31 03:08:25;;;;;;;17.33;9.27;;;14.30;96.10;;;;;;5030744;28;20344;-71
2021/10/31 03:10:53;;;;;;;16.73;9.55;;;14.20;96.00;;;;;;5031622;28;20049;-73
2021/10/31 03:13:20;;;;;;;15.93;9.55;;;14.20;96.10;;;;;;5032166;28;20048;-74
2021/10/31 03:15:46;;;;;;;17.23;9.63;;;14.20;96.10;;;;;;5031757;28;20116;-74
2021/10/31 03:18:12;;;;;;;16.85;10.38;;;14.20;96.20;;;;;;5031765;28;20113;-73
2021/10/31 03:20:38;;;;;;;16.60;9.38;;;14.20;96.20;;;;;;5031644;28;20395;-73
2021/10/31 03:23:04;;;;;;;15.63;9.18;;;14.20;96.30;;;;;;5031638;28;20061;-73
2021/10/31 03:25:29;;;;;;;16.35;10.15;;;14.10;96.40;;;;;;5031953;28;20467;-73
2021/10/31 03:27:55;;;;;;;16.92;9.45;;;14.10;96.40;;;;;;5031417;28;20033;-72
2021/10/31 03:30:20;;;;;;;14.95;9.48;;;14.10;96.40;;;;;;5047028;28;20030;-72
2021/10/31 03:32:46;;;;;;;19.52;10.30;;;14.10;96.40;;;;;;5030950;28;20047;-73
2021/10/31 03:35:12;;;;;;;17.05;9.82;;;14.10;96.40;;;;;;5031337;28;20025;-74
2021/10/31 03:37:38;;;;;;;14.07;9.25;;;14.10;96.30;;;;;;5031417;28;20064;-74
2021/10/31 03:40:04;;;;;;;13.73;9.40;;;14.10;96.30;;;;;;5031620;28;20328;-73
2021/10/31 03:42:30;;;;;;;15.88;9.02;;;14.10;96.30;;;;;;5031281;28;20146;-73
2021/10/31 03:44:57;;;;;;;18.80;9.68;;;14.10;96.30;;;;;;5031014;28;20467;-73
2021/10/31 03:47:23;;;;;;;16.00;9.52;;;14.10;96.40;;;;;;5031361;28;20049;-72
2021/10/31 03:49:49;;;;;;;18.92;10.00;;;14.10;96.40;;;;;;5031011;28;20351;-72
2021/10/31 03:52:14;;;;;;;15.93;9.15;;;14.10;96.50;;;;;;5031399;28;20031;-71
2021/10/31 03:54:40;;;;;;;14.20;9.25;;;14.10;96.50;;;;;;5031368;28;20021;-71
2021/10/31 03:57:06;;;;;;;16.20;9.88;;;14.10;96.50;;;;;;5030888;28;20108;-71
2021/10/31 03:59:32;;;;;;;12.00;8.43;;;14.10;96.50;;;;;;5031171;28;20037;-71
2021/10/31 04:01:57;;;;;;;14.70;9.20;;;14.10;96.60;;;;;;5030970;28;20486;-72
2021/10/31 04:04:23;;;;;;;15.32;9.02;;;14.00;96.60;;;;;;5031034;28;20429;-71
2021/10/31 04:06:49;;;;;;;14.38;9.38;;;14.00;96.60;;;;;;5031146;28;20659;-72
2021/10/31 04:09:14;;;;;;;16.75;9.80;;;14.00;96.60;;;;;;5031123;28;20041;-73
2021/10/31 04:11:40;;;;;;;16.75;10.27;;;14.00;96.70;;;;;;5031145;28;20034;-72
2021/10/31 04:14:05;;;;;;;16.38;9.65;;;14.00;96.60;;;;;;5030845;28;20514;-73
2021/10/31 04:16:31;;;;;;;16.35;9.68;;;14.00;96.70;;;;;;5030987;28;20583;-73
2021/10/31 04:18:57;;;;;;;16.23;9.77;;;14.00;96.70;;;;;;5031197;28;20028;-72
2021/10/31 04:21:22;;;;;;;19.42;10.60;;;14.00;96.70;;;;;;5031122;28;20030;-73
2021/10/31 04:23:51;;;;;;;16.33;8.98;;;13.90;96.90;;;;;;5030971;28;20534;-74
2021/10/31 04:26:16;;;;;;;19.05;10.32;;;13.90;96.80;;;;;;5030610;28;20054;-73
2021/10/31 04:28:42;;;;;;;17.10;10.00;;;14.00;96.90;;;;;;5030541;28;20072;-72
2021/10/31 04:31:07;;;;;;;17.70;10.90;;;14.00;96.80;;;;;;5046466;28;20036;-73
2021/10/31 04:33:34;;;;;;;16.30;9.93;;;14.00;96.80;;;;;;5030594;28;20044;-72
2021/10/31 04:36:00;;;;;;;15.20;9.60;;;14.00;96.90;;;;;;5030711;28;20088;-73
2021/10/31 04:38:29;;;;;;;13.82;9.63;;;14.00;96.90;;;;;;5030656;28;20406;-72
2021/10/31 04:40:56;;;;;;;15.57;9.48;;;14.00;96.80;;;;;;5030576;28;20021;-73
2021/10/31 04:43:23;;;;;;;17.73;10.25;;;14.00;96.80;;;;;;5030941;28;20018;-73
2021/10/31 04:45:49;;;;;;;20.17;9.82;;;14.10;96.80;;;;;;5033565;28;20025;-73
2021/10/31 04:48:15;;;;;;;16.05;9.60;;;14.10;96.80;;;;;;5034096;28;20049;-73
2021/10/31 04:50:41;;;;;;;15.90;9.13;;;14.10;96.80;;;;;;5034188;28;20673;-72
2021/10/31 04:53:08;;;;;;;20.13;10.07;;;14.00;96.80;;;;;;5032966;28;20033;-73
2021/10/31 04:55:38;;;;;;;16.45;9.93;;;14.00;96.90;;;;;;5034497;28;20029;-73
2021/10/31 04:58:04;;;;;;;16.05;9.55;;;14.00;96.90;;;;;;5034983;28;20064;-72
2021/10/31 05:00:30;;;;;;;15.05;8.65;;;14.00;96.70;;;;;;5033189;28;20025;-73
2021/10/31 05:02:56;;;;;;;17.10;8.75;;;14.10;96.60;;;;;;5032709;28;20034;-73
2021/10/31 05:05:22;;;;;;;15.70;9.73;;;14.10;96.50;;;;;;5033796;28;20071;-73
2021/10/31 05:07:49;;;;;;;15.48;9.43;;;14.10;96.60;;;;;;5033982;28;20022;-73
2021/10/31 05:10:18;;;;;;;11.77;7.65;;;14.10;96.70;;;;;;5034132;28;20025;-73
2021/10/31 05:12:45;;;;;;;18.15;8.40;;;14.00;96.70;;;;;;5033825;28;20038;-73
2021/10/31 05:15:11;;;;;;;17.50;9.40;;;14.00;96.70;;;;;;5033808;28;20068;-73
2021/10/31 05:17:37;;;;;;;17.02;8.50;;;14.00;96.80;;;;;;5033680;28;20072;-72
2021/10/31 05:20:03;;;;;;;15.32;8.40;;;14.00;96.70;;;;;;5033676;28;20150;-74
2021/10/31 05:22:29;;;;;;;14.10;7.78;;;13.90;96.70;;;;;;5034618;28;20025;-74
2021/10/31 05:24:54;;;;;;;12.50;7.43;;;14.00;96.70;;;;;;5033855;28;20064;-74
2021/10/31 05:27:20;;;;;;;12.85;7.50;;;14.00;96.60;;;;;;5033222;28;20028;-74
2021/10/31 05:29:45;;;;;;;14.32;8.77;;;14.00;96.60;;;;;;5033463;28;20378;-73
2021/10/31 05:32:11;;;;;;;14.43;8.75;;;13.90;96.70;;;;;;5048837;28;20029;-73
2021/10/31 05:34:37;;;;;;;18.92;9.32;;;13.90;96.70;;;;;;5032530;28;20025;-72
2021/10/31 05:37:03;;;;;;;14.43;9.18;;;13.80;96.80;;;;;;5033793;28;20018;-73
2021/10/31 05:39:28;;;;;;;21.00;9.07;;;13.80;96.90;;;;;;5033545;28;20079;-73
2021/10/31 05:41:54;;;;;;;14.55;9.30;;;13.80;97.00;;;;;;5032386;28;20044;-73
2021/10/31 05:44:20;;;;;;;14.85;7.80;;;13.70;97.10;;;;;;5033383;28;20040;-72
2021/10/31 05:46:45;;;;;;;15.63;8.73;;;13.50;97.20;;;;;;5033436;28;20036;-73
2021/10/31 05:49:11;;;;;;;13.55;8.45;;;13.40;97.30;;;;;;5033441;28;20522;-73
2021/10/31 05:51:36;;;;;;;17.27;9.45;;;13.30;97.40;;;;;;5033181;28;20049;-73
2021/10/31 05:54:02;;;;;;;15.38;8.52;;;13.30;97.50;;;;;;5032908;28;20435;-73
2021/10/31 05:56:28;;;;;;;13.95;8.70;;;13.20;97.50;;;;;;5032987;28;20056;-73
2021/10/31 05:58:53;;;;;;;14.98;8.90;;;13.10;97.50;;;;;;5032840;28;20025;-72
2021/10/31 06:01:19;;;;;;;20.60;9.60;;;13.10;97.60;;;;;;5033353;28;20470;-73
2021/10/31 06:03:44;;;;;;;17.13;9.80;;;13.10;97.80;;;;;;5032926;28;20435;-73
2021/10/31 06:06:10;;;;;;;23.80;10.95;;;13.10;97.70;;;;;;5032286;28;20652;-73
2021/10/31 06:08:35;;;;;;;22.65;12.52;;;13.20;97.50;;;;;;5032991;28;20030;-73
2021/10/31 06:11:01;;;;;;;17.58;9.85;;;13.30;97.50;;;;;;5032693;28;20124;-73
2021/10/31 06:13:27;;;;;;;15.75;9.32;;;13.20;97.50;;;;;;5033043;28;20049;-73
2021/10/31 06:15:53;;;;;;;18.05;11.55;;;13.10;97.50;;;;;;5048184;28;20283;-72
2021/10/31 06:18:19;;;;;;;18.27;11.45;;;13.10;97.80;;;;;;5032592;28;20067;-73
2021/10/31 06:20:45;;;;;;;18.92;11.35;;;13.10;97.80;;;;;;5032598;28;20037;-74
2021/10/31 06:23:11;;;;;;;16.30;10.70;;;13.20;97.70;;;;;;5032779;28;20029;-74
2021/10/31 06:25:37;;;;;;;19.45;11.85;;;13.10;97.70;;;;;;5048165;28;20419;-72
2021/10/31 06:28:03;;;;;;;18.77;11.65;;;13.10;97.90;;;;;;5032984;28;20039;-73
2021/10/31 06:30:28;;;;;;;22.30;12.68;;;13.10;98.10;;;;;;5032446;28;20061;-74
2021/10/31 06:32:54;;;;;;;21.13;12.38;;;13.10;98.30;;;;;;5032224;28;20124;-75
2021/10/31 06:35:19;;;;;;;21.15;12.77;;;13.10;98.40;;;;;;5016204;28;20080;-74
2021/10/31 06:37:47;;;;;;;20.45;12.23;;;13.10;98.60;;;;;;5012622;28;20030;-72
2021/10/31 06:40:13;;;;;;;21.05;12.65;;;13.20;98.50;;;;;;5012924;28;20058;-72
2021/10/31 06:42:39;;;;;;;21.23;12.43;;;13.20;98.40;;;;;;5012649;28;20054;-72
2021/10/31 06:45:05;;;;;;;25.13;12.20;;;13.20;98.40;;;;;;5012303;28;20408;-72
2021/10/31 06:47:31;;;;;;;20.33;11.40;;;13.20;98.30;;;;;;5012395;28;20030;-72
2021/10/31 06:49:57;;;;;;;22.05;12.50;;;13.30;98.10;;;;;;5012286;28;20040;-73
2021/10/31 06:52:23;;;;;;;18.23;11.30;;;13.30;98.10;;;;;;5012777;28;20424;-71
2021/10/31 06:54:50;;;;;;;20.83;13.05;;;13.40;98.20;;;;;;5012302;28;20037;-72
2021/10/31 06:57:16;;;;;;;22.03;12.93;;;13.30;98.50;;;;;;5012071;28;20026;-73
2021/10/31 06:59:42;;;;;;;19.15;11.77;;;13.30;98.60;;;;;;5012107;28;20267;-72
2021/10/31 07:02:07;;;;;;;19.88;12.85;;;13.30;98.80;;;;;;5010889;28;20060;-73
2021/10/31 07:04:34;;;;;;;19.88;12.52;;;13.30;98.80;;;;;;5011797;28;20085;-71
2021/10/31 07:06:59;;;;;;;22.08;13.25;;;13.30;98.80;;;;;;5012163;28;20117;-72
2021/10/31 07:09:25;;;;;;;22.15;13.13;;;13.40;98.70;;;;;;5011668;28;20109;-73
2021/10/31 07:11:51;;;;;;;22.55;13.15;;;13.50;98.60;;;;;;5011926;28;20030;-73
2021/10/31 07:14:16;;;;;;;20.50;12.80;;;13.50;98.70;;;;;;5011664;28;20482;-72
2021/10/31 07:16:42;;;;;;;28.23;16.58;;;13.50;98.60;;;;;;5011801;28;20037;-72
2021/10/31 07:19:08;;;;;;;23.88;13.05;;;13.60;98.60;;;;;;5012260;28;20026;-72
2021/10/31 07:21:33;;;;;;;24.75;15.45;;;13.60;98.60;;;;;;5011731;28;20092;-70
2021/10/31 07:23:59;;;;;;;24.23;14.43;;;13.60;98.60;;;;;;5011713;28;20505;-74
2021/10/31 07:26:24;;;;;;;23.95;14.45;;;13.60;98.50;;;;;;5011555;28;20088;-71
2021/10/31 07:28:52;;;;;;;20.88;12.30;;;13.60;98.50;;;;;;5011536;28;20038;-72
2021/10/31 07:31:19;;;;;;;20.65;12.70;;;13.70;98.60;;;;;;5012051;28;20029;-71
2021/10/31 07:33:45;;;;;;;21.13;13.32;;;13.70;98.60;;;;;;5011712;28;20121;-71
2021/10/31 07:36:10;;;;;;;18.08;11.15;;;13.80;98.60;;;;;;5011454;28;20507;-71
2021/10/31 07:38:39;;;;;;;19.92;12.20;;;13.80;98.50;;;;;;5011570;28;20109;-71
2021/10/31 07:41:05;;;;;;;19.23;12.20;;;13.80;98.50;;;;;;5011388;28;20022;-72
2021/10/31 07:43:31;;;;;;;18.08;11.20;;;13.80;98.40;;;;;;5011207;28;20033;-72
2021/10/31 07:45:56;;;;;;;17.80;11.68;;;13.80;98.50;;;;;;5011881;28;20021;-73
2021/10/31 07:48:22;;;;;;;19.90;11.43;;;13.80;98.60;;;;;;5011544;28;20030;-73
2021/10/31 07:50:47;;;;;;;20.15;11.20;;;13.80;98.60;;;;;;5011349;28;20038;-72
2021/10/31 07:53:13;;;;;;;16.98;12.02;;;13.90;98.50;;;;;;5010359;28;20430;-72
2021/10/31 07:55:41;;;;;;;18.95;12.57;;;13.90;98.50;;;;;;5011057;28;20084;-73
2021/10/31 07:58:07;;;;;;;19.30;12.02;;;13.90;98.40;;;;;;5011957;28;20439;-72
2021/10/31 08:00:34;;;;;;;20.27;11.80;;;13.90;98.40;;;;;;5011153;28;20038;-72
2021/10/31 08:03:00;;;;;;;19.77;11.52;;;13.90;98.60;;;;;;5010373;28;20039;-73
2021/10/31 08:05:27;;;;;;;21.13;11.75;;;13.90;98.50;;;;;;5011112;28;20037;-72
2021/10/31 08:07:54;;;;;;;17.92;12.02;;;14.00;98.50;;;;;;5011047;28;20026;-72
2021/10/31 08:10:20;;;;;;;20.55;11.00;;;14.00;98.50;;;;;;5011496;28;20022;-72
2021/10/31 08:12:47;;;;;;;17.75;10.60;;;14.10;98.50;;;;;;5010936;28;20054;-72
2021/10/31 08:15:12;;;;;;;21.15;13.88;;;14.10;98.40;;;;;;5011093;28;20113;-73
2021/10/31 08:17:38;;;;;;;26.17;14.60;;;14.20;98.50;;;;;;5010942;28;20121;-73
2021/10/31 08:20:04;;;;;;;19.48;12.43;;;14.30;98.40;;;;;;5012679;28;20026;-72
2021/10/31 08:22:30;;;;;;;17.30;11.70;;;14.40;98.20;;;;;;5015393;28;20040;-73
2021/10/31 08:24:55;;;;;;;17.05;11.02;;;14.50;98.10;;;;;;5015206;28;20041;-71
2021/10/31 08:27:21;;;;;;;22.67;13.48;;;14.60;98.00;;;;;;5014944;28;20034;-71
2021/10/31 08:29:47;;;;;;;16.60;11.75;;;14.70;97.90;;;;;;5014744;28;20030;-72
2021/10/31 08:32:14;;;;;;;19.02;12.07;;;14.70;98.10;;;;;;5014923;28;20026;-73
2021/10/31 08:34:40;;;;;;;18.42;11.95;;;14.70;97.80;;;;;;5014644;28;20466;-72
2021/10/31 08:37:06;;;;;;;19.73;12.30;;;14.80;97.90;;;;;;5015314;28;20089;-73
2021/10/31 08:39:32;;;;;;;496.40;101.22;;;14.80;97.80;;;;;;5014654;28;20079;-74
2021/10/31 08:41:57;;;;;;;54.03;19.20;;;14.90;98.20;;;;;;5013528;28;20038;-75
2021/10/31 08:44:24;;;;;;;21.33;13.23;;;15.10;97.90;;;;;;4997234;28;20030;-73
2021/10/31 08:46:50;;;;;;;18.63;12.13;;;15.20;97.70;;;;;;5013337;28;20048;-72
2021/10/31 08:49:16;;;;;;;20.08;12.23;;;15.30;97.60;;;;;;4997565;28;20026;-73
2021/10/31 08:51:42;;;;;;;19.77;11.48;;;15.40;97.40;;;;;;5014394;28;20059;-70
2021/10/31 08:54:09;;;;;;;16.40;10.48;;;15.50;97.20;;;;;;5014362;28;20034;-71
2021/10/31 08:56:35;;;;;;;16.33;11.07;;;15.60;97.30;;;;;;5014317;28;20467;-77
2021/10/31 08:59:02;;;;;;;18.48;12.73;;;15.70;97.10;;;;;;5014309;28;20030;-69
2021/10/31 09:01:28;;;;;;;19.13;12.18;;;15.70;96.90;;;;;;5013399;28;20022;-70
2021/10/31 09:03:54;;;;;;;17.05;11.88;;;15.70;96.90;;;;;;5014155;28;20042;-70
2021/10/31 09:06:25;;;;;;;16.77;10.93;;;15.80;96.70;;;;;;5013957;28;20371;-71
2021/10/31 09:08:50;;;;;;;20.88;12.40;;;16.00;97.00;;;;;;5013815;28;20447;-70
2021/10/31 09:11:16;;;;;;;16.33;11.13;;;16.10;96.70;;;;;;5013823;28;20129;-72
2021/10/31 09:13:41;;;;;;;18.98;11.88;;;16.30;96.60;;;;;;5013625;28;20072;-71
2021/10/31 09:16:07;;;;;;;16.63;10.73;;;16.30;96.40;;;;;;5014137;28;20018;-70
2021/10/31 09:18:33;;;;;;;15.77;10.25;;;16.40;96.20;;;;;;5012284;28;20048;-70
2021/10/31 09:21:00;;;;;;;18.85;10.93;;;16.30;95.90;;;;;;5013636;28;20033;-73
2021/10/31 09:23:26;;;;;;;15.32;10.07;;;16.40;96.10;;;;;;5013858;28;20040;-70
2021/10/31 09:25:52;;;;;;;18.02;10.35;;;16.40;95.80;;;;;;5013434;28;20094;-71
2021/10/31 09:28:18;;;;;;;20.17;11.90;;;16.40;95.90;;;;;;5013971;28;20038;-70
2021/10/31 09:30:44;;;;;;;19.67;10.80;;;16.30;95.70;;;;;;5013056;28;20037;-69
2021/10/31 09:33:11;;;;;;;17.17;9.40;;;16.20;96.00;;;;;;5013411;28;20065;-70
2021/10/31 09:35:58;;;;;;;13.83;9.33;;;16.30;96.10;;;;;;5013351;28;20056;-70
2021/10/31 09:38:26;;;;;;;13.85;9.23;;;16.30;96.00;;;;;;5012342;28;20725;-69
2021/10/31 09:40:54;;;;;;;20.73;11.70;;;16.50;95.90;;;;;;5013040;28;20033;-70
2021/10/31 09:43:20;;;;;;;14.93;9.50;;;16.30;95.70;;;;;;5013690;28;20048;-72
2021/10/31 09:45:45;;;;;;;13.07;8.95;;;16.40;95.90;;;;;;5012967;28;20029;-71
2021/10/31 09:48:13;;;;;;;12.63;8.57;;;16.50;95.90;;;;;;5013185;28;20022;-70
2021/10/31 09:50:50;;;;;;;11.23;7.78;;;16.60;95.70;;;;;;5012847;28;20522;-73
2021/10/31 09:53:19;;;;;;;15.15;8.50;;;16.70;95.70;;;;;;5013034;28;20033;-70
2021/10/31 09:55:47;;;;;;;9.77;6.90;;;16.80;95.70;;;;;;5012912;28;20030;-71
2021/10/31 09:58:19;;;;;;;;;;;16.90;95.40;;;;;;5013952;28;20022;-70
2021/10/31 10:00:48;;;;;;;8.82;6.45;;;17.00;95.40;;;;;;5012647;28;19979;-73
2021/10/31 10:03:35;;;;;;;16.95;6.03;;;17.30;95.10;;;;;;5012918;28;20033;-73
2021/10/31 10:06:18;;;;;;;10.80;5.97;;;17.50;94.60;;;;;;5012927;28;20104;-73
2021/10/31 10:08:56;;;;;;;6.10;4.60;;;18.10;94.50;;;;;;5011745;28;20033;-73
2021/10/31 10:11:21;;;;;;;6.85;4.68;;;18.40;93.70;;;;;;5012710;28;20061;-72
2021/10/31 10:13:47;;;;;;;8.02;4.78;;;18.40;93.40;;;;;;5012748;28;20363;-73
2021/10/31 10:16:21;;;;;;;6.57;4.53;;;18.60;93.40;;;;;;5013192;28;20044;-73
2021/10/31 10:18:48;;;;;;;7.35;4.25;;;19.00;93.10;;;;;;5011363;28;20656;-73
2021/10/31 10:21:25;;;;;;;6.28;4.43;;;19.30;92.60;;;;;;5011245;28;20142;-73
2021/10/31 10:24:01;;;;;;;12.93;3.97;;;19.50;92.10;;;;;;5011187;28;20364;-71
2021/10/31 10:26:34;;;;;;;5.18;4.10;;;19.50;92.20;;;;;;5011169;28;20165;-72
2021/10/31 10:29:04;;;;;;;5.50;3.80;;;19.20;91.80;;;;;;5012592;28;20030;-72
2021/10/31 10:31:30;;;;;;;6.03;3.78;;;19.10;91.80;;;;;;5012997;28;20048;-72
2021/10/31 10:33:55;;;;;;;8.00;3.75;;;19.00;91.90;;;;;;5012531;28;20448;-72
2021/10/31 10:36:23;;;;;;;5.45;3.53;;;19.20;92.00;;;;;;5012684;28;20368;-71
2021/10/31 10:39:11;;;;;;;4.93;3.50;;;19.50;91.70;;;;;;5012242;28;20033;-70
2021/10/31 10:41:43;;;;;;;6.25;3.00;;;19.80;91.80;;;;;;5011763;28;20061;-71
2021/10/31 10:44:36;;;;;;;9.35;4.97;;;19.70;91.90;;;;;;5011662;28;20034;-71
2021/10/31 10:47:08;;;;;;;9.07;5.30;;;20.00;91.30;;;;;;4992207;28;20113;-70
2021/10/31 10:49:39;;;;;;;8.45;4.40;;;19.90;90.70;;;;;;5012022;28;20054;-74
2021/10/31 10:52:20;;;;;;;13.25;6.93;;;19.70;90.60;;;;;;5034704;28;20070;-72
2021/10/31 10:55:07;;;;;;;11.43;4.85;;;19.70;90.60;;;;;;5033992;28;20032;-72
2021/10/31 10:57:36;;;;;;;12.20;5.40;;;19.50;90.70;;;;;;5051620;28;20025;-72
2021/10/31 11:00:17;;;;;;;6.53;3.78;;;19.40;91.00;;;;;;5051771;28;20041;-70
2021/10/31 11:02:44;;;;;;;16.15;6.70;;;19.30;91.00;;;;;;5051781;28;20033;-69
2021/10/31 11:05:12;;;;;;;9.13;3.83;;;19.20;91.10;;;;;;5051384;28;20045;-70
2021/10/31 11:07:47;;;;;;;6.10;3.92;;;19.10;91.50;;;;;;5033916;28;20430;-71
2021/10/31 11:10:22;;;;;;;6.55;3.95;;;19.20;91.50;;;;;;5051871;28;20036;-71
2021/10/31 11:12:50;;;;;;;5.75;4.03;;;19.40;91.60;;;;;;5051700;28;20618;-70
2021/10/31 11:15:22;;;;;;;6.72;3.00;;;19.40;91.20;;;;;;5051313;28;20029;-70
2021/10/31 11:17:51;;;;;;;5.28;3.28;;;19.70;91.20;;;;;;5051383;28;20474;-71
2021/10/31 11:20:20;;;;;;;5.68;2.80;;;19.70;90.80;;;;;;5051140;28;20017;-70
2021/10/31 11:22:49;;;;;;;3.97;3.00;;;19.50;91.00;;;;;;5050888;28;20017;-70
2021/10/31 11:25:17;;;;;;;4.63;3.30;;;19.40;91.10;;;;;;5051605;28;20025;-71
2021/10/31 11:27:45;;;;;;;5.20;2.67;;;19.20;91.20;;;;;;5051190;28;20033;-70
2021/10/31 11:30:12;;;;;;;5.25;3.53;;;19.20;91.50;;;;;;5050923;28;20106;-70
2021/10/31 11:32:40;;;;;;;2.92;2.42;;;19.20;91.40;;;;;;5051092;28;20130;-70
2021/10/31 11:35:07;;;;;;;3.97;2.45;;;19.20;91.50;;;;;;5051036;28;20017;-72
2021/10/31 11:37:59;;;;;;;5.80;3.13;;;19.20;91.50;;;;;;5050889;28;20028;-69
2021/10/31 11:40:33;;;;;;;6.45;2.55;;;19.20;91.50;;;;;;5040725;28;20037;-72
2021/10/31 11:42:59;;;;;;;4.47;2.60;;;19.20;91.50;;;;;;5051313;28;20127;-71
2021/10/31 11:45:32;;;;;;;3.33;2.08;;;19.10;91.50;;;;;;5050966;28;20063;-71
2021/10/31 11:48:17;;;;;;;9.85;5.95;;;19.00;91.70;;;;;;5051035;28;20437;-71
2021/10/31 11:51:01;;;;;;;8.75;3.60;;;19.10;91.80;;;;;;5050709;28;20549;-70
2021/10/31 11:54:03;;;;;;;5.38;2.35;;;19.00;91.80;;;;;;5050330;28;20116;-70
2021/10/31 11:56:29;;;;;;;5.95;1.92;;;19.00;92.00;;;;;;5032446;28;20045;-69
2021/10/31 11:59:01;;;;;;;4.20;1.70;;;18.90;91.90;;;;;;5050232;28;20029;-70
2021/10/31 12:01:48;;;;;;;3.53;1.95;;;18.80;91.90;;;;;;5050902;28;20021;-70
2021/10/31 12:07:49;;;;;;;3.35;2.03;;;18.60;92.20;;;;;;5050425;28;20043;-69
2021/10/31 12:10:29;;;;;;;5.32;2.13;;;18.50;92.20;;;;;;5046026;28;20382;-71
2021/10/31 12:13:20;;;;;;;3.15;2.13;;;18.40;92.30;;;;;;5050286;28;20053;-68
2021/10/31 12:15:55;;;;;;;5.00;3.00;;;18.30;92.40;;;;;;5050324;28;20029;-68
2021/10/31 12:18:44;;;;;;;4.70;2.10;;;18.30;92.50;;;;;;5050011;28;20029;-71
2021/10/31 12:21:23;;;;;;;7.97;3.03;;;18.30;92.50;;;;;;5050393;28;20029;-71
2021/10/31 12:24:07;;;;;;;18.90;7.07;;;18.30;92.60;;;;;;5050284;28;20124;-71
2021/10/31 12:26:36;;;;;;;9.32;4.20;;;18.20;92.60;;;;;;5049558;28;20033;-72
2021/10/31 12:29:33;;;;;;;6.68;2.55;;;18.20;92.60;;;;;;5048692;28;20032;-70
2021/10/31 12:32:16;;;;;;;4.05;2.60;;;18.10;92.80;;;;;;5050053;28;20040;-70
2021/10/31 12:34:44;;;;;;;5.55;2.50;;;18.00;93.00;;;;;;5032336;28;20063;-69
2021/10/31 12:37:19;;;;;;;5.70;2.78;;;18.00;93.20;;;;;;5050370;28;20318;-74
2021/10/31 12:39:44;;;;;;;5.18;2.40;;;17.90;93.10;;;;;;5049800;28;20037;-69
2021/10/31 12:42:31;;;;;;;8.27;4.93;;;18.00;93.30;;;;;;5049985;28;20039;-67
2021/10/31 12:45:16;;;;;;;8.48;4.05;;;17.90;93.50;;;;;;5049941;28;20041;-69
2021/10/31 12:47:45;;;;;;;4.95;2.08;;;18.00;93.50;;;;;;5032127;28;20454;-68
2021/10/31 12:50:25;;;;;;;4.28;2.40;;;18.00;93.60;;;;;;5049672;28;20040;-69
2021/10/31 12:53:08;;;;;;;3.42;1.95;;;18.10;93.50;;;;;;5049896;28;20202;-68